Flight Track Log - Related Links

Times and Time Zones

All times are in EDT time to prevent confusion due to time zone crossing. See the EZY2726 flight status page for this flight to view local times or setup timezone preferences in your user account.

Time Position Orientation Groundspeed Altitude Reporting Facility
EDT Latitude Longitude Course Direction KTS MPH feet Rate Location/Type
Mon 08:10:00 AM 51.5731 5.2608 157° South  Level Estimated
Mon 08:11:00 AM 51.4994 5.3096 158° South  Level Estimated
Mon 08:12:00 AM 51.4257 5.3583 158° South  Level Estimated
Mon 08:13:00 AM 51.3520 5.4068 158° South  Level Estimated
Mon 08:14:00 AM 51.2783 5.4551 158° South  Level Estimated
Mon 08:15:00 AM 51.2045 5.5033 158° South  Level Estimated
Mon 08:16:00 AM 51.1307 5.5513 158° South  Level Estimated
Mon 08:17:00 AM 51.0570 5.5992 158° South  Level Estimated
Mon 08:18:00 AM 50.9832 5.6469 158° South  Level Estimated
Mon 08:19:00 AM 50.9093 5.6945 158° South  Level Estimated
Mon 08:20:00 AM 50.8355 5.7419 158° South  Level Estimated
Mon 08:21:00 AM 50.7616 5.7892 158° South  Level Estimated
Mon 08:22:00 AM 50.6877 5.8363 158° South  Level Estimated
Mon 08:23:00 AM 50.6138 5.8833 158° South  Level Estimated
Mon 08:24:00 AM 50.5391 5.9306 158° South  Level Estimated
Mon 08:25:00 AM 50.4643 5.9778 158° South  Level Estimated
Mon 08:26:00 AM 50.3895 6.0249 158° South  Level Estimated
Mon 08:27:00 AM 50.3147 6.0718 158° South  Level Estimated
Mon 08:28:00 AM 50.2399 6.1185 158° South  Level Estimated
Mon 08:29:00 AM 50.1650 6.1651 158° South  Level Estimated
Mon 08:30:00 AM 50.0902 6.2116 158° South  Level Estimated
Mon 08:31:00 AM 50.0153 6.2579 158° South  Level Estimated
Mon 08:32:00 AM 49.9404 6.3041 158° South  Level Estimated
Mon 08:33:00 AM 49.8655 6.3501 158° South  Level Estimated
Mon 08:34:00 AM 49.7905 6.3960 158° South  Level Estimated
Mon 08:35:00 AM 49.7156 6.4418 158° South  Level Estimated
Mon 08:36:00 AM 49.6406 6.4874 158° South  Level Estimated
Mon 08:37:00 AM 49.5656 6.5328 159° South  Level Estimated
Mon 08:38:00 AM 49.4906 6.5782 159° South  Level Estimated
Mon 08:39:00 AM 49.4156 6.6234 159° South  Level Estimated
Mon 08:40:00 AM 49.3405 6.6684 159° South  Level Estimated
Mon 08:41:00 AM 49.2655 6.7133 159° South  Level Estimated
Mon 08:42:00 AM 49.1904 6.7581 159° South  Level Estimated
Mon 08:43:00 AM 49.1153 6.8027 159° South  Level Estimated
Mon 08:44:00 AM 49.0402 6.8472 159° South  Level Estimated
Mon 08:45:00 AM 48.9650 6.8916 159° South  Level Estimated
Mon 08:46:00 AM 48.8899 6.9359 159° South  Level Estimated
Mon 08:47:00 AM 48.8147 6.9799 159° South  Level Estimated
Mon 08:48:00 AM 48.7395 7.0239 159° South  Level Estimated
Mon 08:49:00 AM 48.6643 7.0678 159° South  Level Estimated
Mon 08:50:00 AM 48.5891 7.1115 159° South  Level Estimated
Mon 08:51:00 AM 48.5139 7.1550 159° South  Level Estimated
Mon 08:52:00 AM 48.4386 7.1985 159° South  Level Estimated
Mon 08:53:00 AM 48.3634 7.2418 159° South  Level Estimated
Mon 08:54:00 AM 48.2881 7.2850 159° South  Level Estimated
Mon 08:55:00 AM 48.2128 7.3281 159° South  Level Estimated
Mon 08:56:00 AM 48.1375 7.3710 159° South  Level Estimated
Mon 08:57:00 AM 48.0622 7.4138 159° South  Level Estimated
Mon 08:58:00 AM 47.9868 7.4565 159° South  Level Estimated
Mon 08:59:00 AM 47.9115 7.4991 159° South  Level Estimated
Mon 09:00:00 AM 47.8361 7.5416 159° South  Level Estimated
Mon 09:01:00 AM 47.7607 7.5839 159° South  Level Estimated
Mon 09:02:00 AM 47.6853 7.6261 159° South  Level Estimated
Mon 09:03:00 AM 47.6099 7.6681 159° South  Level Estimated
Mon 09:04:00 AM 47.5344 7.7101 159° South  Level Estimated
Mon 09:05:00 AM 47.4590 7.7519 159° South  Level Estimated
Mon 09:06:00 AM 47.3835 7.7936 159° South  Level Estimated
Mon 09:07:00 AM 47.3080 7.8352 160° South  Level Estimated
Mon 09:08:00 AM 47.2325 7.8767 160° South  Level Estimated
Mon 09:09:00 AM 47.1516 7.9210 160° South  Level Estimated
Mon 09:10:00 AM 47.0706 7.9653 160° South  Level Estimated
Mon 09:11:00 AM 46.9896 8.0093 160° South  Level Estimated
Mon 09:12:00 AM 46.9085 8.0533 160° South  Level Estimated
Mon 09:13:00 AM 46.8275 8.0971 160° South  Level Estimated
Mon 09:14:00 AM 46.7464 8.1407 160° South  Level Estimated
Mon 09:15:00 AM 46.6654 8.1843 160° South  Level Estimated
Mon 09:16:00 AM 46.5843 8.2277 160° South  Level Estimated
Mon 09:17:00 AM 46.5032 8.2710 160° South  Level Estimated
Mon 09:18:00 AM 46.4220 8.3141 160° South  Level Estimated
Mon 09:19:00 AM 46.3409 8.3572 160° South  Level Estimated
Mon 09:20:00 AM 46.2597 8.4001 160° South  Level Estimated
Mon 09:21:00 AM 46.1786 8.4428 160° South  Level Estimated
Mon 09:22:00 AM 46.0974 8.4855 160° South  Level Estimated
Mon 09:23:00 AM 46.0162 8.5280 160° South  Level Estimated
Mon 09:24:00 AM 45.9350 8.5704 160° South  Level Estimated
Mon 09:25:00 AM 45.8537 8.6127 160° South  Level Estimated
Mon 09:26:00 AM 45.7725 8.6548 160° South  Level Estimated
Mon 09:27:00 AM 45.6912 8.6968 160° South  Level Estimated
Mon 09:28:00 AM 45.6306 8.7281 160° South  Level Estimated
Mon 09:29:00 AM 45.6306 8.7281 170° South  Level Estimated
Mon 09:30:00 AM 45.6306 8.7281 170° South  Level Estimated
Mon 09:31:00 AM 45.6306 8.7281 170° South  Level Estimated
Mon 09:32:00 AM 45.6306 8.7281 170° South  Level Estimated
Mon 09:33:00 AM 45.6306 8.7281 170° South  Level Estimated
Mon 09:34:00 AM 45.6306 8.7281 170° South  Level Estimated
Mon 09:35:00 AM 45.6306 8.7281 170° South  Level Estimated
Mon 09:36:00 AM 45.6306 8.7281 170° South  Level Estimated
Mon 09:37:00 AM 45.6306 8.7281 170° South  Level Estimated
Mon 09:38:00 AM 45.6306 8.7281 170° South  Level Estimated
Mon 09:39:00 AM 45.6306 8.7281 170° South  Level Estimated

Login

Don't have an account? Register now (free) for customized features, flight alerts, and more!